Time;durP1;ratioP1;P1;durP2;ratioP2;P2;SDS_P1;SDS_P2;PMS_P1;PMS_P2;Temp;Humidity;BMP_temperature;BMP_pressure;BME280_temperature;BME280_humidity;BME280_pressure;Samples;Min_cycle;Max_cycle;Signal;HPM_P1;HPM_P2
2023/07/18 04:41:43;;;;;;;7.53;4.45;;;;;;;26.86;58.17;100733.62;5602611;31;211340;-59
2023/07/18 04:44:57;;;;;;;5.57;4.20;;;;;;;26.86;58.17;100733.62;5584034;31;33346;-60
2023/07/18 04:47:59;;;;;;;6.55;4.12;;;;;;;26.35;53.79;100742.59;5584043;31;33696;-59
2023/07/18 04:51:02;;;;;;;5.87;4.12;;;;;;;26.40;54.26;100740.31;5584053;31;34231;-59
2023/07/18 04:54:05;;;;;;;9.10;4.15;;;;;;;26.48;55.99;100741.97;5583956;31;33333;-59
2023/07/18 04:57:07;;;;;;;12.90;4.40;;;;;;;26.53;52.91;100743.59;5583990;32;33532;-59
2023/07/18 05:00:10;;;;;;;9.23;4.12;;;;;;;26.62;53.20;100751.50;5583622;31;33537;-61
2023/07/18 05:03:13;;;;;;;6.85;3.97;;;;;;;26.67;52.38;100754.69;5583763;31;33573;-61
2023/07/18 05:06:15;;;;;;;8.75;4.60;;;;;;;26.73;57.94;100757.09;5583876;32;33500;-61
2023/07/18 05:09:17;;;;;;;7.72;3.90;;;;;;;26.76;52.77;100768.13;5583884;31;33667;-61
2023/07/18 05:12:20;;;;;;;8.05;4.28;;;;;;;26.80;53.02;100777.19;5583719;32;33646;-61
2023/07/18 05:15:23;;;;;;;6.30;4.35;;;;;;;26.85;54.57;100778.78;5569752;32;34332;-61
2023/07/18 05:18:25;;;;;;;6.53;4.18;;;;;;;26.81;54.14;100777.97;5564020;32;33700;-61
2023/07/18 05:21:28;;;;;;;6.37;4.62;;;;;;;26.84;54.61;100778.00;5564010;32;33702;-61
2023/07/18 05:24:30;;;;;;;6.00;4.30;;;;;;;26.91;54.53;100777.28;5564089;32;33746;-61
2023/07/18 05:27:33;;;;;;;11.57;3.87;;;;;;;26.99;53.68;100783.59;5564087;32;33989;-61
2023/07/18 05:30:35;;;;;;;6.93;3.97;;;;;;;27.10;53.95;100781.72;5563901;32;33574;-61
2023/07/18 05:33:38;;;;;;;7.20;4.60;;;;;;;27.22;51.02;100783.41;5563979;32;33646;-61
2023/07/18 05:36:40;;;;;;;5.30;4.37;;;;;;;27.36;50.83;100791.75;5563974;32;33640;-61
2023/07/18 05:39:42;;;;;;;7.20;4.28;;;;;;;27.46;51.59;100785.53;5563671;32;34316;-61
2023/07/18 05:42:45;;;;;;;5.37;3.80;;;;;;;27.58;51.58;100790.69;5564057;32;33639;-61
2023/07/18 05:45:48;;;;;;;7.70;4.10;;;;;;;27.74;52.57;100792.31;5563880;32;33670;-61
2023/07/18 05:48:51;;;;;;;6.87;4.10;;;;;;;27.86;51.25;100790.03;5563984;32;34389;-61
2023/07/18 05:51:53;;;;;;;6.78;4.25;;;;;;;27.95;49.25;100789.69;5556031;32;34355;-61
2023/07/18 05:54:56;;;;;;;7.35;3.75;;;;;;;27.97;48.35;100789.28;5550805;32;33780;-61
2023/07/18 05:57:58;;;;;;;6.12;3.90;;;;;;;28.04;49.26;100797.56;5550791;32;34257;-61
2023/07/18 06:01:00;;;;;;;9.00;4.20;;;;;;;28.17;48.44;100784.22;5550799;32;33673;-61
2023/07/18 06:04:03;;;;;;;8.27;3.95;;;;;;;28.15;48.35;100786.59;5550687;32;34291;-61
2023/07/18 06:07:06;;;;;;;6.30;4.05;;;;;;;28.18;46.79;100792.13;5550858;32;33566;-61
2023/07/18 06:10:09;;;;;;;8.15;3.75;;;;;;;28.21;47.39;100807.06;5550689;32;33861;-59
2023/07/18 06:13:11;;;;;;;7.37;3.70;;;;;;;28.17;47.13;100801.56;5550819;32;34263;-59
2023/07/18 06:16:16;;;;;;;6.72;3.50;;;;;;;28.30;46.43;100805.50;5550702;32;33749;-59
2023/07/18 06:19:18;;;;;;;6.95;3.95;;;;;;;28.33;45.74;100818.53;5550647;32;34243;-59
2023/07/18 06:22:21;;;;;;;5.95;4.12;;;;;;;28.36;46.52;100814.19;5550624;32;33685;-59
2023/07/18 06:25:24;;;;;;;6.82;3.97;;;;;;;28.47;46.60;100812.25;5550564;32;34250;-59
2023/07/18 06:28:27;;;;;;;6.65;3.40;;;;;;;28.58;45.86;100815.06;5549263;32;33830;-59
2023/07/18 06:31:29;;;;;;;5.05;3.97;;;;;;;28.59;44.49;100815.84;5550594;32;33591;-59
2023/07/18 06:34:33;;;;;;;5.85;4.25;;;;;;;28.66;45.20;100815.84;5550441;32;33558;-59
2023/07/18 06:37:35;;;;;;;5.95;3.58;;;;;;;28.72;44.50;100806.78;5550378;32;33618;-59
2023/07/18 06:40:37;;;;;;;9.23;3.97;;;;;;;28.85;46.06;100814.69;5550258;32;33771;-59
2023/07/18 06:43:40;;;;;;;6.07;3.50;;;;;;;28.95;45.43;100811.13;5550446;32;33731;-60
2023/07/18 06:46:42;;;;;;;4.70;3.80;;;;;;;28.97;46.70;100815.06;5550460;32;34220;-59
2023/07/18 06:49:45;;;;;;;5.37;3.87;;;;;;;29.09;45.35;100821.38;5550259;32;34218;-59
2023/07/18 06:52:47;;;;;;;5.50;3.87;;;;;;;29.19;44.70;100815.84;5550386;32;33619;-60
2023/07/18 06:55:50;;;;;;;6.32;3.60;;;;;;;29.19;43.53;100817.81;5550323;32;33347;-59
2023/07/18 06:58:53;;;;;;;7.40;4.70;;;;;;;29.18;43.07;100821.78;5550361;32;34296;-59
2023/07/18 07:01:55;;;;;;;5.50;4.05;;;;;;;29.21;42.97;100826.50;5549992;32;33623;-59
2023/07/18 07:04:57;;;;;;;5.65;4.05;;;;;;;29.26;42.72;100815.81;5549507;32;33668;-59
2023/07/18 07:08:00;;;;;;;6.78;3.87;;;;;;;29.40;42.02;100825.25;5550202;32;34355;-59
2023/07/18 07:11:07;;;;;;;11.23;3.97;;;;;;;29.34;41.19;100826.84;5550263;32;33641;-59
2023/07/18 07:14:11;;;;;;;6.00;3.97;;;;;;;29.36;40.92;100833.56;5550057;32;33437;-60
2023/07/18 07:17:13;;;;;;;6.03;4.15;;;;;;;29.46;41.52;100837.47;5550302;32;33631;-59
2023/07/18 07:20:16;;;;;;;6.18;4.32;;;;;;;29.53;39.60;100843.00;5550031;32;34312;-62
2023/07/18 07:23:18;;;;;;;5.72;3.97;;;;;;;29.59;40.33;100846.13;5550225;32;33669;-62
2023/07/18 07:26:20;;;;;;;7.43;4.22;;;;;;;29.60;41.88;100848.53;5550065;32;33716;-62
2023/07/18 07:29:26;;;;;;;6.82;4.22;;;;;;;29.58;40.46;100850.87;5550049;32;33546;-62
2023/07/18 07:32:28;;;;;;;7.43;4.20;;;;;;;29.40;41.06;100847.34;5549990;32;33602;-62
2023/07/18 07:35:30;;;;;;;7.97;4.05;;;;;;;29.48;41.85;100844.19;5550128;32;34290;-62
2023/07/18 07:38:33;;;;;;;7.25;3.90;;;;;;;29.48;40.94;100841.44;5549932;32;33626;-63
2023/07/18 07:41:35;;;;;;;8.48;4.10;;;;;;;29.57;41.30;100837.44;5549830;32;33556;-62
2023/07/18 07:44:37;;;;;;;7.12;4.18;;;;;;;29.63;38.74;100839.44;5549867;32;34375;-62
2023/07/18 07:47:40;;;;;;;7.53;4.07;;;;;;;29.54;38.97;100852.06;5549865;32;33653;-62
2023/07/18 07:50:42;;;;;;;5.50;3.78;;;;;;;29.49;37.95;100848.53;5547242;32;33904;-62
2023/07/18 07:53:45;;;;;;;7.12;3.72;;;;;;;29.51;37.36;100856.44;5549645;32;33596;-62
2023/07/18 07:56:48;;;;;;;6.65;3.92;;;;;;;29.46;37.11;100852.06;5549816;32;33606;-62
2023/07/18 07:59:51;;;;;;;6.30;4.35;;;;;;;29.40;37.56;100859.19;5549511;32;34420;-62
2023/07/18 08:02:53;;;;;;;5.40;4.05;;;;;;;29.43;38.88;100861.16;5549634;32;34518;-62
2023/07/18 08:05:56;;;;;;;7.45;4.05;;;;;;;29.62;37.82;100853.66;5549449;32;33603;-62
2023/07/18 08:08:58;;;;;;;6.03;4.10;;;;;;;29.66;35.48;100860.75;5549646;32;33686;-62
2023/07/18 08:12:00;;;;;;;7.62;4.22;;;;;;;29.78;35.43;100854.00;5549402;32;33449;-64
2023/07/18 08:15:04;;;;;;;8.32;4.25;;;;;;;29.66;34.99;100866.25;5549114;32;34276;-62
2023/07/18 08:18:06;;;;;;;9.85;4.30;;;;;;;29.73;34.06;100869.03;5549241;32;33638;-62
2023/07/18 08:21:09;;;;;;;5.53;3.65;;;;;;;29.52;35.34;100871.03;5549383;32;33673;-73
2023/07/18 08:24:11;;;;;;;5.35;3.47;;;;;;;29.38;36.16;100872.62;5549268;32;33550;-62
2023/07/18 08:27:13;;;;;;;9.70;3.92;;;;;;;29.45;36.40;100863.53;5549265;32;33454;-62
2023/07/18 08:30:16;;;;;;;9.30;4.87;;;;;;;29.55;36.63;100861.94;5549244;32;34046;-59
2023/07/18 08:33:19;;;;;;;6.97;3.83;;;;;;;29.63;35.62;100858.00;5549031;32;34216;-60
2023/07/18 08:36:22;;;;;;;8.90;4.50;;;;;;;29.55;35.63;100859.19;5549213;32;33635;-59
2023/07/18 08:39:27;;;;;;;6.25;4.32;;;;;;;29.55;34.30;100859.19;5548793;32;33576;-59
2023/07/18 08:42:31;;;;;;;6.10;4.15;;;;;;;29.56;36.67;100860.75;5548467;32;34350;-59
2023/07/18 08:45:37;;;;;;;7.05;4.87;;;;;;;29.68;35.33;100865.88;5548979;32;33652;-59
2023/07/18 08:48:43;;;;;;;5.75;4.20;;;;;;;29.57;35.60;100856.78;5549028;32;33635;-60
2023/07/18 08:51:47;;;;;;;9.43;4.15;;;;;;;29.57;38.54;100856.78;5548777;32;33697;-59
2023/07/18 08:54:50;;;;;;;7.03;4.45;;;;;;;29.56;36.48;100861.53;5548947;32;34281;-59
2023/07/18 08:57:54;;;;;;;6.60;4.30;;;;;;;29.54;35.55;100860.34;5561312;32;33582;-59
2023/07/18 09:00:57;;;;;;;9.18;4.78;;;;;;;29.62;34.68;100853.66;5568102;32;33585;-59
2023/07/18 09:04:00;;;;;;;6.55;4.45;;;;;;;29.64;35.52;100849.31;5567956;32;34302;-59
2023/07/18 09:07:03;;;;;;;6.12;4.10;;;;;;;29.66;36.32;100857.97;5554071;32;33586;-59
2023/07/18 09:10:06;;;;;;;8.73;4.97;;;;;;;29.69;38.26;100848.09;5567739;32;33755;-59
2023/07/18 09:13:09;;;;;;;8.50;5.30;;;;;;;29.65;36.53;100866.69;5567895;32;33640;-59
2023/07/18 09:16:20;;;;;;;6.97;4.00;;;;;;;29.53;37.92;100867.06;5567236;32;33564;-59
2023/07/18 09:19:40;;;;;;;5.87;4.50;;;;;;;29.48;38.52;100859.97;5567601;32;33526;-60
2023/07/18 09:22:43;;;;;;;7.68;4.70;;;;;;;29.40;37.80;100848.13;5567770;32;33663;-59
2023/07/18 09:25:46;;;;;;;8.38;4.90;;;;;;;29.48;38.07;100840.66;5567435;32;33652;-59
2023/07/18 09:28:48;;;;;;;8.07;4.47;;;;;;;29.54;38.42;100836.28;5570401;32;34296;-59
2023/07/18 09:31:51;;;;;;;9.23;5.07;;;;;;;29.64;37.13;100846.56;5570069;32;33654;-59
2023/07/18 09:34:55;;;;;;;7.20;4.45;;;;;;;29.74;38.01;100839.41;5570425;32;33608;-59
2023/07/18 09:37:57;;;;;;;8.07;4.72;;;;;;;29.79;38.23;100844.53;5569681;32;33814;-59
2023/07/18 09:41:01;;;;;;;6.32;4.10;;;;;;;29.57;36.51;100848.50;5570150;32;33731;-60
2023/07/18 09:44:05;;;;;;;9.50;4.22;;;;;;;29.48;36.57;100841.44;5570220;32;34319;-60
2023/07/18 09:47:27;;;;;;;7.30;4.18;;;;;;;29.47;36.45;100831.56;5569961;32;33730;-60
2023/07/18 09:50:39;;;;;;;7.62;4.62;;;;;;;29.56;37.41;100825.62;5570149;32;33676;-60
2023/07/18 09:53:45;;;;;;;6.45;4.05;;;;;;;29.55;37.11;100815.75;5569826;32;33659;-60
2023/07/18 09:56:53;;;;;;;8.50;5.00;;;;;;;29.68;36.15;100818.91;5570089;32;33692;-60
2023/07/18 10:00:01;;;;;;;7.95;4.55;;;;;;;29.75;35.22;100816.13;5569959;32;33675;-60
2023/07/18 10:03:09;;;;;;;7.43;4.60;;;;;;;29.80;36.53;100820.44;5569861;32;34216;-60
2023/07/18 10:06:15;;;;;;;8.75;4.22;;;;;;;29.76;34.64;100816.91;5569974;32;33897;-60
2023/07/18 10:09:18;;;;;;;7.47;4.25;;;;;;;29.69;35.19;100812.97;5569697;32;34222;-60
2023/07/18 10:12:21;;;;;;;7.18;4.37;;;;;;;29.77;34.61;100811.00;5569832;32;34365;-60
2023/07/18 10:15:23;;;;;;;7.03;4.18;;;;;;;29.85;33.92;100790.41;5569631;31;33725;-60
2023/07/18 10:18:26;;;;;;;8.00;4.80;;;;;;;29.84;34.59;100799.13;5569843;32;33772;-60
2023/07/18 10:21:31;;;;;;;6.45;4.30;;;;;;;29.89;34.88;100790.38;5569682;32;33805;-60
2023/07/18 10:24:33;;;;;;;7.32;4.55;;;;;;;29.86;34.45;100783.69;5569751;32;33601;-60
2023/07/18 10:27:38;;;;;;;7.37;4.10;;;;;;;29.82;35.94;100774.62;5569593;32;33685;-60
2023/07/18 10:30:41;;;;;;;5.78;4.32;;;;;;;29.97;34.10;100769.84;5569913;32;34406;-60
2023/07/18 10:34:04;;;;;;;9.32;4.20;;;;;;;29.90;33.87;100781.72;5569567;32;34315;-60
2023/07/18 10:37:10;;;;;;;11.15;4.20;;;;;;;29.76;33.71;100773.47;5569622;32;33748;-59
2023/07/18 10:40:40;;;;;;;8.18;4.45;;;;;;;29.70;33.46;100769.53;5569294;32;33653;-60
2023/07/18 10:43:47;;;;;;;5.82;3.83;;;;;;;29.66;32.67;100760.50;5569304;32;33629;-60
2023/07/18 10:46:49;;;;;;;6.12;4.22;;;;;;;29.59;32.87;100771.56;5569798;32;33771;-59
2023/07/18 10:49:52;;;;;;;5.85;4.15;;;;;;;29.52;33.09;100761.31;5569310;32;34371;-60
2023/07/18 10:52:55;;;;;;;6.70;3.85;;;;;;;29.68;34.06;100755.37;5569694;32;33875;-60
2023/07/18 10:55:57;;;;;;;7.55;3.78;;;;;;;29.83;32.70;100748.56;5569378;32;33640;-60
2023/07/18 10:59:00;;;;;;;5.53;3.67;;;;;;;29.97;32.74;100747.72;5569515;32;34463;-60
2023/07/18 11:02:03;;;;;;;6.78;3.78;;;;;;;30.15;33.18;100742.84;5569223;32;33639;-59
2023/07/18 11:05:11;;;;;;;8.07;4.30;;;;;;;30.17;32.45;100739.69;5569696;32;33674;-60
2023/07/18 11:08:31;;;;;;;7.70;3.72;;;;;;;30.18;32.56;100741.25;5569386;32;34342;-60
2023/07/18 11:11:37;;;;;;;8.35;3.87;;;;;;;30.11;32.41;100736.56;5569629;32;33897;-59
2023/07/18 11:14:39;;;;;;;10.20;4.43;;;;;;;30.19;32.55;100738.09;5569389;31;34319;-59
2023/07/18 11:17:43;;;;;;;6.37;3.97;;;;;;;30.33;32.38;100736.41;5569169;32;33722;-60
2023/07/18 11:20:46;;;;;;;6.22;4.15;;;;;;;30.34;31.34;100738.00;5569451;32;33709;-60
2023/07/18 11:23:48;;;;;;;5.35;3.60;;;;;;;30.46;31.46;100734.72;5568613;32;33613;-60
2023/07/18 11:27:10;;;;;;;6.65;4.00;;;;;;;30.40;31.59;100717.81;5569389;32;34448;-60
2023/07/18 11:30:12;;;;;;;7.37;4.00;;;;;;;30.47;31.85;100718.94;5569266;32;34375;-60
2023/07/18 11:33:14;;;;;;;6.20;3.70;;;;;;;30.53;32.06;100728.34;5569327;32;34478;-59
2023/07/18 11:36:17;;;;;;;5.72;3.83;;;;;;;30.51;31.56;100712.19;5569269;32;33661;-61
2023/07/18 11:39:21;;;;;;;6.40;3.55;;;;;;;30.53;32.65;100714.53;5569089;32;33617;-60
2023/07/18 11:42:42;;;;;;;7.10;4.55;;;;;;;30.54;32.09;100707.81;5569241;32;34162;-59
2023/07/18 11:45:46;;;;;;;9.90;4.37;;;;;;;30.57;31.68;100707.00;5568643;32;33682;-60
2023/07/18 11:48:53;;;;;;;6.68;4.15;;;;;;;30.57;31.15;100702.25;5568142;32;33901;-60
2023/07/18 11:51:56;;;;;;;6.15;3.97;;;;;;;30.61;31.64;100700.22;5568984;32;33709;-59
2023/07/18 11:54:58;;;;;;;7.10;3.50;;;;;;;30.65;30.81;100691.91;5569146;32;33672;-60
2023/07/18 11:58:00;;;;;;;6.30;4.10;;;;;;;30.69;32.21;100697.38;5569017;32;34406;-59
2023/07/18 12:01:02;;;;;;;10.40;4.12;;;;;;;30.65;31.87;100681.59;5569286;32;34435;-61
2023/07/18 12:04:12;;;;;;;8.95;3.90;;;;;;;30.71;31.09;100687.47;5568740;32;33687;-62
2023/07/18 12:07:15;;;;;;;4.68;3.45;;;;;;;30.78;31.52;100684.66;5559579;32;33939;-63
2023/07/18 12:10:18;;;;;;;8.50;3.70;;;;;;;30.79;31.41;100675.16;5564899;32;33882;-63
2023/07/18 12:13:20;;;;;;;8.07;3.97;;;;;;;30.84;30.96;100665.66;5569005;32;33833;-62
2023/07/18 12:16:23;;;;;;;10.25;3.92;;;;;;;30.91;30.83;100662.78;5568797;32;33718;-62
2023/07/18 12:19:25;;;;;;;6.95;3.70;;;;;;;30.93;30.86;100667.91;5568962;32;33615;-62
2023/07/18 12:22:28;;;;;;;5.97;3.85;;;;;;;30.93;30.82;100662.38;5568718;32;34361;-62
2023/07/18 12:25:31;;;;;;;6.40;3.90;;;;;;;30.94;32.38;100659.19;5568821;32;33782;-62
2023/07/18 12:28:34;;;;;;;7.37;3.80;;;;;;;31.03;31.79;100650.41;5561126;32;34357;-62
2023/07/18 12:31:36;;;;;;;4.80;3.50;;;;;;;31.04;30.72;100643.66;5549313;32;33538;-62
2023/07/18 12:34:40;;;;;;;6.07;4.00;;;;;;;31.12;31.13;100642.38;5549018;32;34082;-63
2023/07/18 12:37:42;;;;;;;6.05;3.50;;;;;;;31.10;31.68;100640.03;5548975;32;33603;-62
2023/07/18 12:40:45;;;;;;;9.20;4.12;;;;;;;31.16;31.12;100645.91;5548552;32;33774;-63
2023/07/18 12:43:47;;;;;;;7.87;3.90;;;;;;;31.13;31.29;100635.66;5548845;32;33617;-62
2023/07/18 12:46:49;;;;;;;8.45;4.45;;;;;;;31.12;31.73;100631.28;5548752;32;34414;-62
2023/07/18 12:49:52;;;;;;;7.85;4.35;;;;;;;31.20;30.72;100643.06;5548726;32;34337;-63
2023/07/18 12:52:58;;;;;;;6.25;3.78;;;;;;;31.14;31.19;100637.19;5548699;32;33120;-62
2023/07/18 12:56:00;;;;;;;6.93;4.22;;;;;;;31.08;31.51;100631.34;5548573;32;34349;-62
2023/07/18 12:59:05;;;;;;;7.50;4.45;;;;;;;31.12;31.76;100622.97;5548684;32;34032;-63
2023/07/18 13:02:09;;;;;;;7.53;3.50;;;;;;;31.07;31.49;100617.91;5549699;32;33534;-63
2023/07/18 13:05:13;;;;;;;6.68;4.10;;;;;;;31.13;31.12;100619.03;5551068;32;34375;-62
2023/07/18 13:08:15;;;;;;;5.82;3.83;;;;;;;31.12;31.15;100620.22;5550966;32;33753;-63
2023/07/18 13:11:18;;;;;;;8.20;4.37;;;;;;;31.08;32.30;100602.87;5551012;32;34423;-63
2023/07/18 13:14:20;;;;;;;8.38;4.07;;;;;;;31.09;31.60;100604.44;5550876;32;33351;-60
2023/07/18 13:17:23;;;;;;;8.95;3.92;;;;;;;31.13;32.00;100605.97;5551041;32;34151;-60
2023/07/18 13:20:26;;;;;;;9.85;4.28;;;;;;;31.23;32.57;100603.47;5550829;32;34302;-60
2023/07/18 13:23:28;;;;;;;8.30;4.20;;;;;;;31.24;31.22;100594.75;5550885;32;33787;-60
2023/07/18 13:26:31;;;;;;;7.22;4.00;;;;;;;31.20;31.96;100598.78;5550788;32;34379;-60
2023/07/18 13:29:35;;;;;;;5.22;3.80;;;;;;;31.19;32.38;100592.41;5551019;32;33580;-60
2023/07/18 13:32:37;;;;;;;7.10;4.07;;;;;;;31.17;32.80;100599.59;5550636;32;33643;-60
2023/07/18 13:35:40;;;;;;;6.03;3.95;;;;;;;31.21;31.85;100592.81;5550875;32;33614;-59
2023/07/18 13:38:42;;;;;;;8.82;4.00;;;;;;;31.23;32.26;100592.41;5550643;32;33790;-60
2023/07/18 13:41:45;;;;;;;5.60;4.18;;;;;;;31.31;31.91;100591.09;5550835;32;34369;-59
2023/07/18 13:44:50;;;;;;;7.15;4.20;;;;;;;31.31;32.13;100580.78;5550514;32;33816;-60
2023/07/18 13:47:54;;;;;;;6.95;4.22;;;;;;;31.34;32.01;100581.97;5550725;32;33748;-59
2023/07/18 13:50:58;;;;;;;5.65;3.97;;;;;;;31.29;31.97;100590.72;5550500;32;33384;-60
2023/07/18 13:54:00;;;;;;;4.37;3.50;;;;;;;31.25;32.07;100582.44;5550592;32;33621;-60
2023/07/18 13:57:04;;;;;;;6.22;4.05;;;;;;;31.26;32.34;100578.50;5550608;32;34280;-60
2023/07/18 14:00:07;;;;;;;8.98;4.10;;;;;;;31.21;32.59;100573.41;5550572;32;33593;-60
2023/07/18 14:03:13;;;;;;;6.03;3.90;;;;;;;31.25;32.71;100576.91;5550537;32;35105;-60
2023/07/18 14:06:36;;;;;;;8.95;4.10;;;;;;;31.25;32.37;100574.16;5550394;32;33380;-59
2023/07/18 14:09:38;;;;;;;11.77;4.37;;;;;;;31.31;32.25;100572.47;5550554;32;34259;-60
2023/07/18 14:12:40;;;;;;;7.12;4.12;;;;;;;31.27;32.46;100576.50;5549914;32;34369;-60
2023/07/18 14:15:43;;;;;;;7.43;4.15;;;;;;;31.27;34.44;100568.19;5550099;32;33826;-60
2023/07/18 14:18:45;;;;;;;7.60;3.87;;;;;;;31.27;33.03;100566.22;5550632;32;33638;-60
2023/07/18 14:21:47;;;;;;;7.12;4.30;;;;;;;31.31;32.69;100566.16;5550511;32;33768;-60
2023/07/18 14:24:50;;;;;;;6.97;4.32;;;;;;;31.32;32.25;100551.91;5550636;32;33687;-60
2023/07/18 14:27:53;;;;;;;8.45;4.05;;;;;;;31.30;32.60;100545.22;5550439;32;33521;-60
